Terminal Aerodrome Forecast
Issued by NWS

Home | Current Version | Previous Version | Text Only | Print | Product List | Glossary On
Versions: 1 2 3 4 5 6 7 8 9 10 11 12 13 14 15 16 17 18 19 20 21 22 23 24 25 26 27
354
FTUS43 KLOT 231126
TAFMDW
TAF
KMDW 231126Z 2312/2412 36008KT 5SM -RA BKN006 OVC025
     FM231600 33010KT 6SM -RA BKN012 OVC030
     FM232200 28012KT P6SM SCT020 BKN200
     FM240500 28013G22KT 6SM -RA BKN010 OVC040
     FM240900 26012KT 4SM -RA OVC008=

USA.gov is the U.S. government's official web portal to all federal, state and local government web resources and services.